createdAt,value
2018-03-23T00:01:56.119Z,88.46
2018-03-23T00:04:24.530Z,88.75
2018-03-23T00:06:52.844Z,88.85
2018-03-23T00:09:21.180Z,88.86
2018-03-23T00:11:49.489Z,89.22
2018-03-23T00:14:17.861Z,89.35
2018-03-23T00:16:46.180Z,89.17
2018-03-23T00:19:14.517Z,89.13
2018-03-23T00:21:42.864Z,89.19
2018-03-23T00:24:11.220Z,89.38
2018-03-23T00:26:39.585Z,89.60
2018-03-23T00:29:07.927Z,89.92
2018-03-23T00:31:36.297Z,90.06
2018-03-23T00:34:04.851Z,90.01
2018-03-23T00:36:33.185Z,89.75
2018-03-23T00:39:01.526Z,89.50
2018-03-23T00:41:30.073Z,89.54
2018-03-23T00:43:58.681Z,89.64
2018-03-23T00:46:27.061Z,89.61
2018-03-23T00:48:55.460Z,89.28
2018-03-23T00:51:23.850Z,89.35
2018-03-23T00:53:52.229Z,89.38
2018-03-23T00:56:20.557Z,89.30
2018-03-23T00:58:48.899Z,88.98
2018-03-23T01:01:17.265Z,89.20
2018-03-23T01:03:45.613Z,89.29
2018-03-23T01:06:13.960Z,89.35
2018-03-23T01:08:42.279Z,89.21
2018-03-23T01:11:10.689Z,89.21
2018-03-23T01:13:39.027Z,89.20
2018-03-23T01:16:07.382Z,89.14
2018-03-23T01:18:35.720Z,89.28
2018-03-23T01:21:04.056Z,89.17
2018-03-23T01:23:32.388Z,89.46
2018-03-23T01:26:00.710Z,89.41
2018-03-23T01:28:29.066Z,89.67
2018-03-23T01:30:57.422Z,89.87
2018-03-23T01:33:25.762Z,89.81
2018-03-23T01:35:54.094Z,89.98
2018-03-23T01:38:22.371Z,89.80
2018-03-23T01:40:50.684Z,89.87
2018-03-23T01:43:19.031Z,89.82
2018-03-23T01:45:47.562Z,89.84
2018-03-23T01:48:15.915Z,89.83
2018-03-23T01:50:44.203Z,90.04
2018-03-23T01:53:24.271Z,89.92
2018-03-23T01:55:52.593Z,89.93
2018-03-23T01:58:20.878Z,90.01
2018-03-23T02:00:49.272Z,90.02
2018-03-23T02:03:17.612Z,90.15
2018-03-23T02:05:45.894Z,90.07
2018-03-23T02:08:14.250Z,90.07
2018-03-23T02:10:42.543Z,89.89
2018-03-23T02:13:11.300Z,89.89
2018-03-23T02:15:39.557Z,89.94
2018-03-23T02:18:07.879Z,89.95
2018-03-23T02:20:36.476Z,89.83
2018-03-23T02:23:04.818Z,89.50
2018-03-23T02:25:33.265Z,89.45
2018-03-23T02:28:01.614Z,89.25
2018-03-23T02:30:29.918Z,89.24
2018-03-23T02:32:58.236Z,89.18
2018-03-23T02:35:26.583Z,89.26
2018-03-23T02:37:54.922Z,89.46
2018-03-23T02:40:23.279Z,89.55
2018-03-23T02:42:51.676Z,89.75
2018-03-23T02:45:20.011Z,89.82
2018-03-23T02:47:48.461Z,89.88
2018-03-23T02:50:16.773Z,89.77
2018-03-23T02:52:45.099Z,89.75
2018-03-23T02:55:13.492Z,89.69
2018-03-23T02:57:41.817Z,89.85
2018-03-23T03:00:10.149Z,89.76
2018-03-23T03:02:38.468Z,89.71
2018-03-23T03:05:06.798Z,89.65
2018-03-23T03:07:35.120Z,89.85
2018-03-23T03:10:03.588Z,89.82
2018-03-23T03:12:31.907Z,89.85
2018-03-23T03:15:00.342Z,89.80
2018-03-23T03:17:28.689Z,89.84
2018-03-23T03:19:57.116Z,89.73
2018-03-23T03:22:25.815Z,89.89
2018-03-23T03:24:54.251Z,89.77
2018-03-23T03:27:22.640Z,89.77
2018-03-23T03:29:51.012Z,89.91
2018-03-23T03:32:19.362Z,89.67
2018-03-23T03:34:47.725Z,89.56
2018-03-23T03:37:16.073Z,89.42
2018-03-23T03:39:44.891Z,89.58
2018-03-23T03:42:13.624Z,89.56
2018-03-23T03:44:41.968Z,89.59
2018-03-23T03:47:10.348Z,89.53
2018-03-23T03:49:38.716Z,89.39
2018-03-23T03:52:07.185Z,89.49
2018-03-23T03:54:35.532Z,89.30
2018-03-23T03:57:03.931Z,89.28
2018-03-23T03:59:32.276Z,89.07
2018-03-23T04:02:00.600Z,89.00
2018-03-23T04:04:29.004Z,88.94
2018-03-23T04:06:57.414Z,88.83
2018-03-23T04:09:25.736Z,88.90
2018-03-23T04:11:54.087Z,88.98
2018-03-23T04:14:22.398Z,89.17
2018-03-23T04:16:50.749Z,88.98
2018-03-23T04:19:19.095Z,88.81
2018-03-23T04:21:49.902Z,88.75
2018-03-23T04:24:18.214Z,88.63
2018-03-23T04:26:46.589Z,88.90
2018-03-23T04:29:15.016Z,88.58
2018-03-23T04:31:43.356Z,88.88
2018-03-23T04:34:11.712Z,88.97
2018-03-23T04:36:40.928Z,88.79
2018-03-23T04:39:09.256Z,88.76
2018-03-23T04:41:37.649Z,88.50
2018-03-23T04:44:05.957Z,88.91
2018-03-23T04:46:34.357Z,88.87
2018-03-23T04:49:02.701Z,88.96
2018-03-23T04:51:31.094Z,89.00
2018-03-23T04:53:59.465Z,88.86
2018-03-23T04:56:27.814Z,88.53
2018-03-23T04:58:56.145Z,88.44
2018-03-23T05:01:24.488Z,88.67
2018-03-23T05:03:52.819Z,88.83
2018-03-23T05:06:21.351Z,88.69
2018-03-23T05:08:49.774Z,88.95
2018-03-23T05:11:18.130Z,89.18
2018-03-23T05:13:46.518Z,89.21
2018-03-23T05:16:14.949Z,89.13
2018-03-23T05:18:43.329Z,89.23
2018-03-23T05:21:11.792Z,89.16
2018-03-23T05:23:40.125Z,89.11
2018-03-23T05:26:08.442Z,89.17
2018-03-23T05:28:36.816Z,89.07
2018-03-23T05:31:05.157Z,88.94
2018-03-23T05:33:33.477Z,88.84
2018-03-23T05:36:01.863Z,88.68
2018-03-23T05:38:30.198Z,88.68
2018-03-23T05:40:58.517Z,90.08
2018-03-23T05:43:27.115Z,85.85
2018-03-23T05:45:55.423Z,84.12
2018-03-23T05:48:23.787Z,81.96
2018-03-23T05:50:52.895Z,83.59
2018-03-23T05:53:21.626Z,81.59
2018-03-23T05:55:49.958Z,83.56
2018-03-23T05:58:18.375Z,84.75
2018-03-23T06:00:46.696Z,85.81
2018-03-23T06:03:15.114Z,86.38
2018-03-23T06:05:43.450Z,86.34
2018-03-23T06:08:11.767Z,86.36
2018-03-23T06:10:40.370Z,86.55
2018-03-23T06:13:08.700Z,86.67
2018-03-23T06:15:37.085Z,86.68
2018-03-23T06:18:05.468Z,87.36
2018-03-23T06:20:33.862Z,87.58
2018-03-23T06:23:02.187Z,87.39
2018-03-23T06:25:30.606Z,87.22
2018-03-23T06:27:58.942Z,87.04
2018-03-23T06:30:27.266Z,87.35
2018-03-23T06:32:55.598Z,86.86
2018-03-23T06:35:23.971Z,86.92
2018-03-23T06:37:52.286Z,86.78
2018-03-23T06:40:20.656Z,86.50
2018-03-23T06:42:49.241Z,86.84
2018-03-23T06:45:17.581Z,86.70
2018-03-23T06:47:45.891Z,86.67
2018-03-23T06:50:14.369Z,86.82
2018-03-23T06:52:42.682Z,86.98
2018-03-23T06:55:11.041Z,86.66
2018-03-23T06:57:39.382Z,86.53
2018-03-23T07:00:07.696Z,86.25
2018-03-23T07:02:36.056Z,86.06
2018-03-23T07:05:04.385Z,85.33
2018-03-23T07:07:32.743Z,85.65
2018-03-23T07:10:01.064Z,85.90
2018-03-23T07:12:29.474Z,85.46
2018-03-23T07:14:57.805Z,85.47
2018-03-23T07:17:26.155Z,85.26
2018-03-23T07:19:54.495Z,84.61
2018-03-23T07:22:23.841Z,85.03
2018-03-23T07:24:52.163Z,84.98
2018-03-23T07:27:20.538Z,84.00
2018-03-23T07:29:48.838Z,84.39
2018-03-23T07:32:17.189Z,84.24
2018-03-23T07:34:45.552Z,83.80
2018-03-23T07:37:13.901Z,83.26
2018-03-23T07:39:42.223Z,83.31
2018-03-23T07:42:10.712Z,84.07
2018-03-23T08:04:55.461Z,81.85
2018-03-23T08:07:23.925Z,82.36
2018-03-23T08:09:52.358Z,82.45
2018-03-23T08:12:20.765Z,82.07
2018-03-23T08:14:49.153Z,81.66
2018-03-23T08:17:17.535Z,80.95
2018-03-23T08:19:45.892Z,81.37
2018-03-23T08:22:14.232Z,80.55
2018-03-23T08:24:42.698Z,81.53
2018-03-23T08:27:11.230Z,81.14
2018-03-23T08:29:39.660Z,80.93
2018-03-23T08:32:08.098Z,81.70
2018-03-23T08:34:36.432Z,82.36
2018-03-23T08:37:04.785Z,81.67
2018-03-23T08:39:33.218Z,81.94
2018-03-23T08:42:01.580Z,81.11
2018-03-23T08:44:29.977Z,82.21
2018-03-23T08:46:58.294Z,80.86
2018-03-23T08:49:26.616Z,78.76
2018-03-23T08:51:55.797Z,76.68
2018-03-23T08:54:24.137Z,77.07
2018-03-23T08:56:52.573Z,77.33
2018-03-23T08:59:20.914Z,76.33
2018-03-23T09:01:49.267Z,76.91
2018-03-23T09:04:17.855Z,76.96
2018-03-23T09:06:46.245Z,76.09
2018-03-23T09:09:14.582Z,75.30
2018-03-23T09:11:42.931Z,75.77
2018-03-23T09:14:11.542Z,75.67
2018-03-23T09:16:40.029Z,75.06
2018-03-23T09:19:08.325Z,74.01
2018-03-23T09:21:36.664Z,75.53
2018-03-23T09:24:04.983Z,75.62
2018-03-23T09:26:33.390Z,74.76
2018-03-23T09:29:01.766Z,72.88
2018-03-23T09:31:30.180Z,73.82
2018-03-23T09:33:58.718Z,71.88
2018-03-23T09:36:27.053Z,74.67
2018-03-23T09:38:55.373Z,73.95
2018-03-23T09:41:23.721Z,73.54
2018-03-23T09:43:52.038Z,72.83
2018-03-23T09:46:20.363Z,72.37
2018-03-23T09:48:48.755Z,74.01
2018-03-23T09:51:18.024Z,72.54
2018-03-23T09:53:46.480Z,74.57
2018-03-23T09:56:14.808Z,74.22
2018-03-23T09:58:43.121Z,73.80
2018-03-23T10:01:11.472Z,74.23
2018-03-23T10:03:39.781Z,74.62
2018-03-23T10:06:08.127Z,75.36
2018-03-23T10:08:36.481Z,76.37
2018-03-23T10:11:04.835Z,75.87
2018-03-23T10:13:33.286Z,75.14
2018-03-23T10:16:01.597Z,75.56
2018-03-23T10:18:30.040Z,75.75
2018-03-23T10:20:58.587Z,74.36
2018-03-23T10:23:26.943Z,74.07
2018-03-23T10:25:55.263Z,72.60
2018-03-23T10:28:23.611Z,73.82
2018-03-23T10:30:51.982Z,74.84
2018-03-23T10:33:20.384Z,73.38
2018-03-23T10:35:48.697Z,73.69
2018-03-23T10:38:17.092Z,73.36
2018-03-23T10:40:45.469Z,74.72
2018-03-23T10:43:13.806Z,74.53
2018-03-23T10:45:42.134Z,74.69
2018-03-23T10:48:10.547Z,74.80
2018-03-23T10:50:38.863Z,73.65
2018-03-23T10:53:07.192Z,72.92
2018-03-23T10:55:35.504Z,74.73
2018-03-23T10:58:05.556Z,74.71
2018-03-23T11:00:39.429Z,73.77
2018-03-23T11:03:07.755Z,75.30
2018-03-23T11:05:36.057Z,75.29
2018-03-23T11:08:04.407Z,75.13
2018-03-23T11:10:32.731Z,75.82
2018-03-23T11:13:01.046Z,76.58
2018-03-23T11:15:29.378Z,76.62
2018-03-23T11:17:57.870Z,74.87
2018-03-23T11:20:26.294Z,74.28
2018-03-23T11:22:54.630Z,73.59
2018-03-23T11:25:22.944Z,74.05
2018-03-23T11:27:51.369Z,73.43
2018-03-23T11:30:19.768Z,74.95
2018-03-23T11:32:48.033Z,75.28
2018-03-23T11:35:16.397Z,75.00
2018-03-23T11:37:44.694Z,75.46
2018-03-23T11:40:13.075Z,75.08
2018-03-23T11:42:41.378Z,74.69
2018-03-23T11:45:09.815Z,73.94
2018-03-23T11:47:38.129Z,75.28
2018-03-23T11:50:06.462Z,73.45
2018-03-23T11:52:34.768Z,72.29
2018-03-23T11:55:03.309Z,72.47
2018-03-23T11:57:31.622Z,72.93
2018-03-23T12:00:00.041Z,72.36
2018-03-23T12:02:28.359Z,71.12
2018-03-23T12:04:56.694Z,70.76
2018-03-23T12:07:25.078Z,70.54
2018-03-23T12:09:53.567Z,69.72
2018-03-23T12:12:21.910Z,68.32
2018-03-23T12:14:50.220Z,65.59
2018-03-23T12:17:18.601Z,65.95
2018-03-23T12:19:53.849Z,66.43
2018-03-23T12:22:22.200Z,65.05
2018-03-23T12:24:50.511Z,66.10
2018-03-23T12:27:18.895Z,66.81
2018-03-23T12:29:47.211Z,68.80
2018-03-23T12:32:15.573Z,68.99
2018-03-23T12:34:43.917Z,69.25
2018-03-23T12:37:12.274Z,69.16
2018-03-23T12:39:40.579Z,69.67
2018-03-23T12:42:08.966Z,70.32
2018-03-23T12:44:37.369Z,70.81
2018-03-23T12:47:05.692Z,70.83
2018-03-23T12:49:34.321Z,70.44
2018-03-23T12:52:02.758Z,70.09
2018-03-23T12:54:31.150Z,72.14
2018-03-23T12:56:59.580Z,73.26
2018-03-23T12:59:27.888Z,73.62
2018-03-23T13:01:56.231Z,73.31
2018-03-23T13:04:24.572Z,73.25
2018-03-23T13:06:52.925Z,72.74
2018-03-23T13:09:21.249Z,72.92
2018-03-23T13:11:49.589Z,72.15
2018-03-23T13:14:17.919Z,72.00
2018-03-23T13:16:46.309Z,72.72
2018-03-23T13:19:14.655Z,72.61
2018-03-23T13:21:42.969Z,72.37
2018-03-23T13:24:11.290Z,71.89
2018-03-23T13:26:39.594Z,72.72
2018-03-23T13:29:07.923Z,72.34
2018-03-23T13:31:36.521Z,72.71
2018-03-23T13:34:04.871Z,73.42
2018-03-23T13:36:33.217Z,73.50
2018-03-23T13:39:01.581Z,73.18
2018-03-23T13:41:30.992Z,74.32
2018-03-23T13:43:59.755Z,74.01
2018-03-23T13:46:28.073Z,73.74
2018-03-23T13:48:56.404Z,73.38
2018-03-23T13:51:24.766Z,72.69
2018-03-23T13:53:53.108Z,73.07
2018-03-23T13:56:21.440Z,72.61
2018-03-23T13:58:55.469Z,72.99
2018-03-23T14:01:29.335Z,73.41
2018-03-23T14:03:57.688Z,71.63
2018-03-23T14:06:26.005Z,71.12
2018-03-23T14:08:54.332Z,69.88
2018-03-23T14:11:22.664Z,69.36
2018-03-23T14:13:50.980Z,69.83
2018-03-23T14:16:19.346Z,69.77
2018-03-23T14:18:47.746Z,69.25
2018-03-23T14:21:16.074Z,70.47
2018-03-23T14:23:44.442Z,69.33
2018-03-23T14:26:12.800Z,69.67
2018-03-23T14:28:41.198Z,68.31
2018-03-23T14:31:09.526Z,67.72
2018-03-23T14:33:37.955Z,68.98
2018-03-23T14:36:06.394Z,69.28
2018-03-23T14:38:34.725Z,68.97
2018-03-23T14:41:03.041Z,68.86
2018-03-23T14:43:31.366Z,69.45
2018-03-23T14:45:59.706Z,69.21
2018-03-23T14:48:28.061Z,69.97
2018-03-23T14:50:56.480Z,68.83
2018-03-23T14:53:24.912Z,68.93
2018-03-23T14:55:53.327Z,68.90
2018-03-23T14:58:21.725Z,67.98
2018-03-23T15:00:51.079Z,65.84
2018-03-23T15:03:19.449Z,64.99
2018-03-23T15:05:47.841Z,67.06
2018-03-23T15:08:18.833Z,68.51
2018-03-23T15:10:47.193Z,67.42
2018-03-23T15:13:15.660Z,68.57
2018-03-23T15:15:44.007Z,67.84
2018-03-23T15:18:12.383Z,67.42
2018-03-23T15:20:40.841Z,67.89
2018-03-23T15:23:09.183Z,68.74
2018-03-23T15:25:37.507Z,68.48
2018-03-23T15:28:05.895Z,69.19
2018-03-23T15:30:34.285Z,69.34
2018-03-23T15:33:02.639Z,70.18
2018-03-23T15:35:30.986Z,69.29
2018-03-23T15:37:59.381Z,69.80
2018-03-23T15:40:27.762Z,68.75
2018-03-23T15:42:56.090Z,70.17
2018-03-23T15:45:24.441Z,69.90
2018-03-23T15:47:52.806Z,70.08
2018-03-23T15:50:21.152Z,69.43
2018-03-23T15:52:49.536Z,68.23
2018-03-23T15:55:17.897Z,69.63
2018-03-23T15:57:46.275Z,69.26
2018-03-23T16:00:14.631Z,69.08
2018-03-23T16:02:42.962Z,69.33
2018-03-23T16:05:11.283Z,70.11
2018-03-23T16:07:39.641Z,69.90
2018-03-23T16:10:08.079Z,70.44
2018-03-23T16:12:36.398Z,70.28
2018-03-23T16:15:04.730Z,69.52
2018-03-23T16:17:33.080Z,69.37
2018-03-23T16:20:03.144Z,67.50
2018-03-23T16:22:32.747Z,66.60
2018-03-23T16:25:01.126Z,67.41
2018-03-23T16:27:29.446Z,68.09
2018-03-23T16:29:57.825Z,66.94
2018-03-23T16:32:26.154Z,66.64
2018-03-23T16:34:54.479Z,67.80
2018-03-23T16:37:22.822Z,68.58
2018-03-23T16:39:51.157Z,69.39
2018-03-23T16:42:19.465Z,69.47
2018-03-23T16:44:47.824Z,69.89
2018-03-23T16:47:16.156Z,70.33
2018-03-23T16:49:44.546Z,70.26
2018-03-23T16:52:12.840Z,70.42
2018-03-23T16:54:41.162Z,71.02
2018-03-23T16:57:09.570Z,71.56
2018-03-23T16:59:37.930Z,71.93
2018-03-23T17:02:06.252Z,72.70
2018-03-23T17:04:34.582Z,72.63
2018-03-23T17:07:02.906Z,72.76
2018-03-23T17:09:31.320Z,72.58
2018-03-23T17:11:59.712Z,72.92
2018-03-23T17:14:28.027Z,73.08
2018-03-23T17:16:56.357Z,73.10
2018-03-23T17:19:24.695Z,73.17
2018-03-23T17:21:53.040Z,74.13
2018-03-23T17:24:22.014Z,73.89
2018-03-23T17:26:50.440Z,73.99
2018-03-23T17:29:18.831Z,74.65
2018-03-23T17:31:47.233Z,74.50
2018-03-23T17:34:15.549Z,74.13
2018-03-23T17:36:43.884Z,74.01
2018-03-23T17:39:12.227Z,74.66
2018-03-23T17:41:40.634Z,74.59
2018-03-23T17:44:08.978Z,75.33
2018-03-23T17:46:37.316Z,75.45
2018-03-23T17:49:05.721Z,75.61
2018-03-23T17:51:34.066Z,76.13
2018-03-23T17:54:02.507Z,76.27
2018-03-23T17:56:30.883Z,76.41
2018-03-23T17:58:59.188Z,76.36
2018-03-23T18:01:27.515Z,76.57
2018-03-23T18:03:55.993Z,76.73
2018-03-23T18:06:24.331Z,76.94
2018-03-23T18:08:52.646Z,77.07
2018-03-23T18:11:21.028Z,77.12
2018-03-23T18:13:49.403Z,77.46
2018-03-23T18:16:17.822Z,77.08
2018-03-23T18:18:46.147Z,77.11
2018-03-23T18:21:14.597Z,77.30
2018-03-23T18:23:42.954Z,77.37
2018-03-23T18:26:11.281Z,77.26
2018-03-23T18:28:39.976Z,77.17
2018-03-23T18:31:10.305Z,76.70
2018-03-23T18:33:38.813Z,77.07
2018-03-23T18:36:07.204Z,76.90
2018-03-23T18:38:35.520Z,77.30
2018-03-23T18:41:03.832Z,76.73
2018-03-23T18:43:32.163Z,76.74
2018-03-23T18:46:00.554Z,76.52
2018-03-23T18:48:28.938Z,76.45
2018-03-23T18:50:57.288Z,76.55
2018-03-23T18:53:25.631Z,77.18
2018-03-23T18:55:53.969Z,77.14
2018-03-23T18:58:22.297Z,76.78
2018-03-23T19:00:50.605Z,76.78
2018-03-23T19:03:19.246Z,77.27
2018-03-23T19:05:47.774Z,76.99
2018-03-23T19:08:16.186Z,77.25
2018-03-23T19:10:44.568Z,77.79
2018-03-23T19:13:12.978Z,78.03
2018-03-23T19:15:41.447Z,78.09
2018-03-23T19:18:09.777Z,78.12
2018-03-23T19:20:38.080Z,78.47
2018-03-23T19:23:06.459Z,78.43
2018-03-23T19:25:34.893Z,77.99
2018-03-23T19:28:03.796Z,77.94
2018-03-23T19:30:41.787Z,77.65
2018-03-23T19:33:11.029Z,78.11
2018-03-23T19:35:42.008Z,78.79
2018-03-23T19:38:11.253Z,78.85
2018-03-23T19:40:40.814Z,78.84
2018-03-23T19:43:09.193Z,79.14
2018-03-23T19:45:37.735Z,79.25
2018-03-23T19:48:06.662Z,79.48
2018-03-23T19:50:35.055Z,79.54
2018-03-23T19:53:03.395Z,79.61
2018-03-23T19:55:31.748Z,79.91
2018-03-23T19:58:00.088Z,79.94
2018-03-23T20:00:28.442Z,80.08
2018-03-23T20:02:56.838Z,80.29
2018-03-23T20:05:25.167Z,80.22
2018-03-23T20:07:53.588Z,79.96
2018-03-23T20:10:21.949Z,79.75
2018-03-23T20:12:50.361Z,79.46
2018-03-23T20:15:18.743Z,79.62
2018-03-23T20:17:52.859Z,79.60
2018-03-23T20:20:26.678Z,79.98
2018-03-23T20:22:55.066Z,80.07
2018-03-23T20:25:23.426Z,79.39
2018-03-23T20:27:57.373Z,78.86
2018-03-23T20:30:25.780Z,78.57
2018-03-23T20:32:54.142Z,78.63
2018-03-23T20:35:22.528Z,78.68
2018-03-23T20:37:50.870Z,79.35
2018-03-23T20:40:19.246Z,79.56
2018-03-23T20:42:47.599Z,80.08
2018-03-23T20:45:15.930Z,80.32
2018-03-23T20:47:44.365Z,79.88
2018-03-23T20:50:12.704Z,79.80
2018-03-23T20:52:41.051Z,80.17
2018-03-23T20:55:09.822Z,80.26
2018-03-23T20:57:38.199Z,79.54
2018-03-23T21:00:06.946Z,79.78
2018-03-23T21:02:35.286Z,79.21
2018-03-23T21:05:03.703Z,78.59
2018-03-23T21:07:32.032Z,78.79
2018-03-23T21:10:00.341Z,78.82
2018-03-23T21:12:28.831Z,78.97
2018-03-23T21:14:57.977Z,79.07
2018-03-23T21:17:26.377Z,79.15
2018-03-23T21:19:54.765Z,78.83
2018-03-23T21:22:23.248Z,78.88
2018-03-23T21:24:51.706Z,78.79
2018-03-23T21:27:20.027Z,79.00
2018-03-23T21:29:48.352Z,79.23
2018-03-23T21:32:16.671Z,79.18
2018-03-23T21:34:44.996Z,79.16
2018-03-23T21:37:13.324Z,79.45
2018-03-23T21:39:41.672Z,79.61
2018-03-23T21:42:10.141Z,79.70
2018-03-23T21:44:38.556Z,79.66
2018-03-23T21:47:06.870Z,79.83
2018-03-23T21:49:35.217Z,80.01
2018-03-23T21:52:03.533Z,79.73
2018-03-23T21:54:31.862Z,79.86
2018-03-23T21:57:00.230Z,80.00
2018-03-23T21:59:28.568Z,80.16
2018-03-23T22:01:56.877Z,80.26
2018-03-23T22:04:25.700Z,80.62
2018-03-23T22:06:54.117Z,80.33
2018-03-23T22:09:22.458Z,80.32
2018-03-23T22:11:50.786Z,80.64
2018-03-23T22:14:19.153Z,80.65
2018-03-23T22:16:47.632Z,80.68
2018-03-23T22:19:15.995Z,80.53
2018-03-23T22:21:44.412Z,80.62
2018-03-23T22:24:12.805Z,80.71
2018-03-23T22:26:41.149Z,80.93
2018-03-23T22:29:09.489Z,80.99
2018-03-23T22:31:37.807Z,81.47
2018-03-23T22:34:06.168Z,81.57
2018-03-23T22:36:34.520Z,81.19
2018-03-23T22:39:02.834Z,81.19
2018-03-23T22:41:31.212Z,81.35
2018-03-23T22:43:59.563Z,81.46
2018-03-23T22:46:27.883Z,81.51
2018-03-23T22:48:56.220Z,81.58
2018-03-23T22:51:24.601Z,82.02
2018-03-23T22:53:52.946Z,81.83
2018-03-23T22:56:21.367Z,81.67
2018-03-23T22:58:49.739Z,81.68
2018-03-23T23:01:18.074Z,81.89
2018-03-23T23:03:46.412Z,81.62
2018-03-23T23:06:14.773Z,81.71
2018-03-23T23:08:43.113Z,81.87
2018-03-23T23:11:11.436Z,82.02
2018-03-23T23:13:39.743Z,82.12
2018-03-23T23:16:08.180Z,82.18
2018-03-23T23:18:36.501Z,82.34
2018-03-23T23:21:04.857Z,82.45
2018-03-23T23:23:33.194Z,82.88
2018-03-23T23:26:01.492Z,82.94
2018-03-23T23:28:29.838Z,82.94
2018-03-23T23:30:58.182Z,83.12
2018-03-23T23:33:26.529Z,82.65
2018-03-23T23:35:54.862Z,83.12
2018-03-23T23:38:23.202Z,83.09
2018-03-23T23:40:51.510Z,82.85
2018-03-23T23:43:19.860Z,82.93
2018-03-23T23:45:48.372Z,83.13
2018-03-23T23:48:16.773Z,83.22
2018-03-23T23:50:45.168Z,83.26
2018-03-23T23:53:13.570Z,83.24
2018-03-23T23:55:41.926Z,83.30
2018-03-23T23:58:10.591Z,83.48
